Station: Lady Elliot Island  

  Atmospheric Gas Attenuation - ITU Rec 676-11   ----------------- dB/100km -----------------
Date Time Temp RH % AH g/m3 Dew Point Wind Direction Speed kph Gust kph Barometer mB Rainfall Since 9am 24GHz 47GHz 76GHz 122GHz 134GHz 241GHz
07/09 06:20 20.4 95 16.8 19.6 7 11 1019.4 0 36.7 38.3 71.6 189.3 204.8 710.4
07/09 06:10 20.2 95 16.61 19.4 7 11 1019.3 0 36.3 38.0 70.9 187.3 202.3 701.9
07/09 06:00 20 95 16.42 19.2 6 9 1019.1 0 35.9 37.7 70.2 185.4 199.9 693.3
07/09 05:50 20 95 16.42 19.2 6 7 1019.1 0 35.9 37.7 70.2 185.4 199.9 693.3
07/09 05:40 19.8 94 16.05 18.8 6 7 1019 0 35.1 37.1 68.6 181.2 194.6 675.1
07/09 05:30 20.2 95 16.61 19.4 6 9 1018.8 0 36.3 38.0 70.9 187.3 202.2 701.7
07/09 05:20 20.2 94 16.43 19.2 6 9 1018.8 0 35.9 37.6 70.0 185.0 199.4 691.9
07/09 05:10 20.2 94 16.43 19.2 6 9 1018.7 0 35.9 37.6 70.0 185.0 199.4 691.9
07/09 05:00 20.3 94 16.53 19.3 9 11 1018.5 0 36.1 37.8 70.4 186.0 200.7 696.2
07/09 04:50 20.5 93 16.55 19.3 7 11 1018.3 0 36.1 37.7 70.3 185.7 200.4 695.4
07/09 04:39 20.7 92 16.56 19.4 6 7 1018.2 0 36.1 37.6 70.1 185.3 200.0 694.0
07/09 04:30 20.7 92 16.56 19.4 9 13 1018.1 0 36.1 37.6 70.1 185.3 200.0 694.0
07/09 04:20 20.9 91 16.57 19.4 9 13 1018.1 0 36.2 37.5 70.0 184.9 199.6 692.7
07/09 04:10 21.2 90 16.68 19.5 9 13 1018.2 0 36.4 37.6 70.2 185.6 200.5 695.9
07/09 04:00 21.2 91 16.86 19.7 11 15 1018.2 0 36.7 38.0 71.1 187.9 203.3 705.5
07/09 03:50 21.2 91 16.86 19.7 11 17 1017.9 0 36.7 37.9 71.1 187.8 203.3 705.4
07/09 03:40 21.2 92 17.05 19.8 15 20 1017.6 0 37.2 38.3 72.0 190.2 206.2 715.5
07/09 03:30 21.1 92 16.95 19.7 17 20 1017.4 0 36.9 38.1 71.6 189.1 204.9 710.9
07/09 03:20 21.3 92 17.15 19.9 17 19 1017.4 0 37.4 38.4 72.3 191.1 207.4 719.9
07/09 03:10 21.4 92 17.25 20 11 15 1017.5 0 37.6 38.6 72.7 192.2 208.7 724.4
07/09 03:00 21.6 92 17.45 20.2 15 20 1017.3 0 38.0 38.9 73.5 194.2 211.3 733.2
07/09 02:50 21.5 91 17.16 20 19 24 1017.4 0 37.4 38.4 72.2 190.8 207.0 718.5
07/09 02:40 21.5 91 17.16 20 20 22 1017.1 0 37.4 38.3 72.2 190.7 207.0 718.3
07/09 02:30 21.3 91 16.96 19.8 15 22 1017.1 0 37.0 38.1 71.4 188.7 204.4 709.5
07/09 02:20 21.4 91 17.06 19.9 17 19 1017.2 0 37.2 38.2 71.8 189.7 205.7 713.9
07/09 02:10 21.4 90 16.87 19.7 17 24 1017.2 0 36.8 37.8 70.9 187.3 202.8 703.7
07/09 02:00 21.5 91 17.16 20 15 20 1017.2 0 37.4 38.4 72.2 190.7 207.0 718.4
07/09 01:50 21.5 91 17.16 20 15 20 1017.2 0 37.4 38.4 72.2 190.7 207.0 718.4
07/09 01:40 21.6 91 17.26 20.1 13 19 1017.3 0 37.6 38.5 72.6 191.8 208.3 722.9
07/09 01:30 21.6 90 17.07 19.9 17 20 1017.3 0 37.2 38.1 71.7 189.4 205.3 712.6
07/09 01:20 21.6 90 17.07 19.9 13 19 1017.4 0 37.2 38.1 71.7 189.4 205.4 712.7
07/09 01:10 21.6 90 17.07 19.9 15 19 1017.6 0 37.2 38.2 71.7 189.4 205.4 712.8
07/09 01:00 21.7 90 17.17 20 15 20 1017.6 0 37.4 38.3 72.1 190.4 206.7 717.2
07/09 00:50 21.7 89 16.98 19.8 13 20 1017.7 0 37.0 37.9 71.2 188.0 203.7 707.1
07/09 00:40 21.8 89 17.07 19.9 15 20 1017.8 0 37.1 38.1 71.5 188.9 204.9 711.0
07/09 00:30 21.8 88 16.88 19.7 15 20 1017.8 0 36.7 37.7 70.6 186.6 201.9 700.8
07/09 00:20 21.6 89 16.88 19.7 13 20 1017.8 0 36.7 37.8 70.8 187.1 202.5 702.7
07/09 00:00 21.8 89 17.07 19.9 13 19 1017.8 0 37.1 38.1 71.5 188.9 204.9 711.0
06/09 23:57 21.8 89 17.07 19.9 15 19 1017.8 0 37.1 38.1 71.5 188.9 204.9 711.0
06/09 23:50 21.7 88 16.79 19.6 13 19 1017.9 0 36.5 37.6 70.3 185.7 200.9 697.0
06/09 23:40 21.7 88 16.79 19.6 13 17 1017.8 0 36.5 37.6 70.3 185.7 200.8 697.0
06/09 23:30 21.7 87 16.59 19.4 15 20 1017.7 0 36.1 37.2 69.3 183.2 197.8 686.3
06/09 23:20 21.8 87 16.69 19.5 15 24 1017.5 0 36.3 37.3 69.7 184.1 199.0 690.6
06/09 23:10 21.7 88 16.79 19.6 17 24 1017.4 0 36.6 37.6 70.2 185.6 200.8 696.8
06/09 23:00 21.8 87 16.69 19.5 19 26 1017.3 0 36.3 37.3 69.7 184.1 199.0 690.5
06/09 22:50 21.9 87 16.79 19.6 20 28 1017.3 0 36.5 37.5 70.1 185.1 200.2 694.9
06/09 22:40 21.9 86 16.59 19.5 20 26 1017.2 0 36.1 37.1 69.1 182.6 197.2 684.2
06/09 22:30 21.8 85 16.31 19.2 20 30 1017.3 0 35.5 36.6 67.9 179.4 193.2 670.4
06/09 22:20 22 87 16.88 19.7 22 28 1017.3 0 36.7 37.6 70.4 186.0 201.3 698.7
06/09 22:10 21.9 86 16.59 19.5 24 32 1017.4 0 36.1 37.1 69.1 182.7 197.2 684.3
06/09 22:00 21.9 85 16.4 19.3 24 32 1017.4 0 35.7 36.8 68.2 180.3 194.3 674.3
06/09 21:50 22 87 16.88 19.7 26 32 1017.3 0 36.7 37.6 70.4 186.0 201.3 698.7
06/09 21:40 21.9 86 16.59 19.5 26 33 1017.3 0 36.1 37.1 69.1 182.6 197.2 684.3
06/09 21:30 21.9 86 16.59 19.5 26 30 1017.3 0 36.1 37.1 69.1 182.6 197.2 684.3
06/09 21:20 21.8 86 16.5 19.4 28 32 1017.3 0 35.9 37.0 68.8 181.8 196.1 680.4
06/09 21:10 21.8 86 16.5 19.4 26 30 1017.2 0 35.9 37.0 68.8 181.7 196.1 680.4
06/09 21:00 21.8 86 16.5 19.4 26 30 1017.2 0 35.9 37.0 68.8 181.7 196.1 680.4
06/09 20:50 21.8 85 16.31 19.2 26 32 1017.1 0 35.5 36.6 67.9 179.4 193.2 670.3
06/09 20:40 21.9 84 16.21 19.1 26 30 1017.1 0 35.3 36.4 67.4 177.9 191.4 664.2
06/09 20:30 21.7 85 16.21 19.1 26 32 1017 0 35.3 36.5 67.5 178.4 191.9 665.9
06/09 20:20 21.7 86 16.4 19.3 26 30 1017 0 35.7 36.8 68.4 180.7 194.8 675.9
06/09 20:10 21.8 85 16.31 19.2 26 30 1017 0 35.5 36.6 67.9 179.4 193.2 670.3
06/09 20:00 21.8 86 16.5 19.4 24 30 1016.9 0 35.9 37.0 68.8 181.7 196.0 680.2
06/09 19:50 21.8 85 16.31 19.2 26 30 1016.8 0 35.5 36.6 67.9 179.3 193.1 670.2
06/09 19:40 21.8 84 16.11 19 28 33 1016.7 0 35.1 36.2 67.0 176.9 190.1 659.6
06/09 19:30 21.8 85 16.31 19.2 26 32 1016.7 0 35.5 36.6 67.9 179.3 193.1 670.1
06/09 19:20 21.7 85 16.21 19.1 24 30 1016.6 0 35.3 36.5 67.5 178.3 191.9 665.7
06/09 19:10 21.7 84 16.02 18.9 26 30 1016.5 0 34.9 36.1 66.6 176.0 189.0 655.7
06/09 19:00 21.8 84 16.11 19 24 30 1016.5 0 35.1 36.2 66.9 176.9 190.1 659.5
06/09 18:50 21.5 84 15.84 18.7 24 28 1016.5 0 34.5 35.9 66.0 174.3 186.8 648.0
06/09 18:40 21.7 85 16.21 19.1 24 28 1016.4 0 35.3 36.4 67.5 178.3 191.8 665.6
06/09 18:30 21.8 84 16.11 19 24 30 1016.3 0 35.1 36.2 66.9 176.8 190.1 659.4
06/09 18:20 21.8 84 16.11 19 24 28 1016.3 0 35.1 36.2 66.9 176.8 190.1 659.4
06/09 18:10 21.6 83 15.74 18.6 22 28 1016.3 0 34.3 35.6 65.4 172.8 185.0 641.9
06/09 18:00 21.7 83 15.83 18.7 22 30 1016.2 0 34.5 35.7 65.7 173.6 186.1 645.7
06/09 17:50 21.8 83 15.92 18.8 22 30 1016.2 0 34.7 35.9 66.1 174.5 187.2 649.5
06/09 17:40 21.8 84 16.11 19 22 26 1016.1 0 35.1 36.2 66.9 176.8 190.0 659.3
06/09 17:30 21.9 83 16.02 18.9 22 30 1016 0 34.9 36.0 66.4 175.5 188.4 653.7
06/09 17:20 22 81 15.72 18.6 24 28 1016 0 34.2 35.4 65.0 171.6 183.7 637.4
06/09 17:10 22.2 82 16.1 19 24 30 1015.9 0 35.0 36.0 66.5 175.7 188.8 655.3
06/09 17:00 22.4 82 16.28 19.2 22 28 1015.9 0 35.4 36.3 67.2 177.4 191.0 662.9
06/09 16:50 22.5 80 15.98 18.9 24 30 1015.9 0 34.8 35.7 65.7 173.6 186.3 646.5
06/09 16:40 22.7 80 16.16 19.1 24 28 1015.9 0 35.1 35.9 66.4 175.3 188.5 654.1
06/09 16:30 22.6 77 15.47 18.4 24 28 1015.7 0 33.7 34.7 63.3 167.2 178.6 619.5
06/09 16:20 22.9 78 15.94 18.9 24 32 1015.9 0 34.6 35.4 65.2 172.2 184.7 641.1
06/09 16:10 22.9 76 15.53 18.4 24 30 1015.6 0 33.8 34.7 63.3 167.3 178.7 620.1
06/09 16:00 23 76 15.62 18.5 20 26 1015.9 0 33.9 34.8 63.7 168.2 179.8 623.9
06/09 15:50 23.1 75 15.5 18.4 19 24 1016 0 33.7 34.6 63.1 166.6 177.9 617.1
06/09 15:40 23.3 73 15.26 18.2 17 24 1016 0 33.2 34.0 61.8 163.3 173.9 603.5
06/09 15:30 23.4 75 15.77 18.7 17 26 1016 0 34.2 34.9 64.0 169.1 181.1 628.3
06/09 15:20 23.3 75 15.68 18.6 19 26 1016 0 34.1 34.8 63.7 168.2 180.0 624.6
06/09 15:10 23.5 73 15.44 18.4 19 24 1016.1 0 33.5 34.3 62.5 165.0 176.1 610.9
06/09 15:00 23.8 73 15.7 18.7 17 24 1016 0 34.1 34.6 63.4 167.4 179.1 621.5
06/09 14:50 23.9 71 15.36 18.3 17 24 1016 0 33.3 34.0 61.8 163.2 174.0 603.8
06/09 14:40 23.8 70 15.06 18 15 24 1016.1 0 32.7 33.5 60.6 160.0 170.0 589.7
06/09 14:30 24 70 15.23 18.2 17 22 1016.2 0 33.0 33.7 61.2 161.5 171.9 596.6
06/09 14:20 24.3 68 15.05 18 17 24 1016.3 0 32.6 33.3 60.2 158.8 168.7 585.5
06/09 14:10 24.8 69 15.71 18.7 15 20 1016.5 0 34.0 34.3 62.6 165.4 177.0 614.2
06/09 14:00 24.7 68 15.39 18.4 15 22 1016.5 0 33.3 33.7 61.3 161.9 172.7 599.2
06/09 13:49 24.3 68 15.05 18.2 15 20 1016.7 0 32.6 33.3 60.2 158.9 168.8 585.7

Last Refresh: 07-Sep-2026 06:05:07

Bureau of Meteorology